Time;durP1;ratioP1;P1;durP2;ratioP2;P2;SDS_P1;SDS_P2;PMS_P1;PMS_P2;Temp;Humidity;BMP_temperature;BMP_pressure;BME280_temperature;BME280_humidity;BME280_pressure;Samples;Min_cycle;Max_cycle;Signal;HPM_P1;HPM_P2
2023/01/02 00:00:31;;;;;;;1.83;1.50;;;4.50;99.90;;;;;;5068288;28;20031;-75
2023/01/02 00:02:56;;;;;;;7.60;1.88;;;5.50;99.90;;;;;;5069977;28;20044;-75
2023/01/02 00:05:23;;;;;;;4.65;2.55;;;4.50;99.90;;;;;;5070122;28;20028;-74
2023/01/02 00:07:49;;;;;;;1.98;1.15;;;4.70;99.90;;;;;;5069608;28;20108;-72
2023/01/02 00:10:14;;;;;;;1.30;1.20;;;4.50;99.90;;;;;;5067924;28;20614;-74
2023/01/02 00:12:40;;;;;;;6.88;1.63;;;4.80;99.90;;;;;;5069512;28;20044;-73
2023/01/02 00:15:06;;;;;;;4.93;2.00;;;4.70;99.90;;;;;;5069520;28;20107;-72
2023/01/02 00:17:32;;;;;;;7.15;2.30;;;;;;;;;;5067823;28;20528;-73
2023/01/02 00:19:58;;;;;;;7.20;1.48;;;;;;;;;;5069212;28;20029;-74
2023/01/02 00:22:24;;;;;;;2.22;1.60;;;4.70;99.90;;;;;;5068551;28;20449;-75
2023/01/02 00:24:49;;;;;;;4.88;2.13;;;4.80;99.90;;;;;;5072342;28;20096;-74
2023/01/02 00:27:15;;;;;;;3.00;1.40;;;4.60;99.90;;;;;;5071671;28;20035;-75
2023/01/02 00:29:41;;;;;;;7.28;2.50;;;;;;;;;;5071923;28;20408;-74
2023/01/02 00:32:06;;;;;;;6.15;2.78;;;4.70;99.90;;;;;;5071324;28;20024;-74
2023/01/02 00:34:32;;;;;;;7.85;2.83;;;4.70;99.90;;;;;;5052473;28;20163;-74
2023/01/02 00:36:58;;;;;;;7.78;2.92;;;;;;;;;;5050494;28;20040;-76
2023/01/02 00:39:24;;;;;;;4.50;2.72;;;4.90;99.90;;;;;;5051278;28;20029;-75
2023/01/02 00:41:50;;;;;;;9.80;3.05;;;;;;;;;;5050089;28;20036;-74
2023/01/02 00:44:15;;;;;;;5.10;2.60;;;5.00;99.90;;;;;;5048826;28;20060;-74
2023/01/02 00:46:41;;;;;;;7.32;2.75;;;4.80;99.90;;;;;;5050084;28;20063;-74
2023/01/02 00:49:06;;;;;;;6.95;2.65;;;6.90;99.90;;;;;;5050031;28;20025;-75
2023/01/02 00:51:32;;;;;;;2.60;1.92;;;4.70;99.90;;;;;;5048755;28;20024;-75
2023/01/02 00:53:58;;;;;;;5.10;2.20;;;4.50;99.90;;;;;;5050831;28;20394;-73
2023/01/02 00:56:23;;;;;;;4.18;1.67;;;4.80;99.90;;;;;;5069541;28;20048;-75
2023/01/02 00:58:49;;;;;;;5.68;2.17;;;4.80;99.90;;;;;;5070445;28;20025;-74
2023/01/02 01:01:15;;;;;;;3.38;2.20;;;4.90;99.90;;;;;;5070717;28;20476;-75
2023/01/02 01:03:42;;;;;;;7.32;2.60;;;4.80;99.90;;;;;;5068252;28;20032;-75
2023/01/02 01:06:13;;;;;;;3.35;1.98;;;4.80;99.90;;;;;;5067039;28;20028;-75
2023/01/02 01:08:39;;;;;;;2.90;1.90;;;4.80;99.90;;;;;;5070677;28;20032;-75
2023/01/02 01:11:12;;;;;;;2.53;1.80;;;5.70;99.90;;;;;;5068757;28;20029;-74
2023/01/02 01:13:38;;;;;;;3.38;2.33;;;4.80;99.90;;;;;;5056910;28;20158;-75
2023/01/02 01:16:13;;;;;;;2.97;2.28;;;4.80;99.90;;;;;;5046890;28;20120;-74
2023/01/02 01:18:38;;;;;;;4.55;1.50;;;5.20;99.90;;;;;;5045992;28;20483;-74
2023/01/02 01:21:09;;;;;;;10.43;2.28;;;4.60;99.90;;;;;;5044487;28;20397;-74
2023/01/02 01:23:35;;;;;;;1.50;1.40;;;4.90;99.90;;;;;;5048837;28;20490;-77
2023/01/02 01:26:11;;;;;;;2.60;1.75;;;4.40;99.90;;;;;;5049462;28;20090;-74
2023/01/02 01:28:37;;;;;;;1.85;1.75;;;4.40;99.90;;;;;;5050450;28;20104;-75
2023/01/02 01:31:09;;;;;;;3.53;2.92;;;4.40;99.90;;;;;;5050539;28;20498;-74
2023/01/02 01:33:36;;;;;;;2.92;2.63;;;4.60;99.90;;;;;;5051289;28;20036;-74
2023/01/02 01:36:08;;;;;;;2.38;1.77;;;4.70;99.90;;;;;;5052525;28;20028;-76
2023/01/02 01:38:34;;;;;;;2.80;1.65;;;4.60;99.90;;;;;;5051868;28;20021;-75
2023/01/02 01:41:01;;;;;;;2.92;2.38;;;4.50;99.90;;;;;;5051825;28;20481;-75
2023/01/02 01:44:00;;;;;;;1.73;1.63;;;4.50;99.90;;;;;;5049898;28;20103;-75
2023/01/02 01:46:37;;;;;;;7.95;3.30;;;4.60;99.90;;;;;;5006799;28;20041;-74
2023/01/02 01:49:07;;;;;;;4.25;2.28;;;4.20;99.90;;;;;;5056507;28;20024;-75
2023/01/02 01:51:36;;;;;;;7.28;2.30;;;4.60;99.90;;;;;;5070025;28;20028;-75
2023/01/02 01:54:09;;;;;;;3.33;1.83;;;4.50;99.90;;;;;;5071238;28;20028;-74
2023/01/02 01:56:37;;;;;;;2.95;1.90;;;4.20;99.90;;;;;;5071244;28;20107;-75
2023/01/02 01:59:03;;;;;;;4.03;1.98;;;4.30;99.90;;;;;;5071236;28;20556;-74
2023/01/02 02:01:29;;;;;;;3.42;1.90;;;;;;;;;;5071452;28;20051;-75
2023/01/02 02:03:56;;;;;;;5.55;1.77;;;;;;;;;;5069469;28;20385;-74
2023/01/02 02:06:22;;;;;;;5.15;2.13;;;;;;;;;;5071038;28;20049;-75
2023/01/02 02:09:03;;;;;;;4.88;2.03;;;4.30;99.90;;;;;;5072083;28;20038;-76
2023/01/02 02:11:29;;;;;;;4.05;1.85;;;4.70;99.90;;;;;;5072613;28;20056;-76
2023/01/02 02:13:59;;;;;;;4.70;2.40;;;4.50;99.90;;;;;;5070471;28;20047;-75
2023/01/02 02:16:40;;;;;;;4.78;2.15;;;4.40;99.90;;;;;;5071677;28;20020;-76
2023/01/02 02:19:26;;;;;;;4.60;1.70;;;4.20;99.90;;;;;;5072066;28;20059;-74
2023/01/02 02:21:55;;;;;;;2.80;1.88;;;4.30;99.90;;;;;;5071032;28;20128;-74
2023/01/02 02:24:44;;;;;;;1.87;1.70;;;4.30;99.90;;;;;;5072037;28;20115;-73
2023/01/02 02:27:58;;;;;;;5.03;2.30;;;4.80;99.90;;;;;;5068855;28;20028;-75
2023/01/02 02:30:36;;;;;;;5.70;2.95;;;4.70;99.90;;;;;;5032842;28;20083;-74
2023/01/02 02:33:41;;;;;;;3.58;2.95;;;5.00;99.90;;;;;;5070290;28;20024;-75
2023/01/02 02:36:18;;;;;;;2.83;1.58;;;5.30;99.90;;;;;;5063511;28;20404;-75
2023/01/02 02:38:53;;;;;;;6.20;3.15;;;5.10;99.90;;;;;;5069265;28;20561;-72
2023/01/02 02:41:25;;;;;;;5.00;1.83;;;;;;;;;;5068244;28;20127;-74
2023/01/02 02:44:24;;;;;;;8.80;3.58;;;4.10;99.90;;;;;;5071776;28;20099;-75
2023/01/02 02:47:02;;;;;;;4.72;1.80;;;4.80;99.90;;;;;;5072042;28;20027;-75
2023/01/02 02:49:55;;;;;;;4.82;1.90;;;4.90;99.90;;;;;;5064712;28;20052;-75
2023/01/02 02:52:50;;;;;;;2.97;2.13;;;5.20;99.90;;;;;;5050749;28;20044;-75
2023/01/02 02:55:22;;;;;;;2.65;2.42;;;4.80;99.90;;;;;;5047788;28;20033;-74
2023/01/02 02:57:49;;;;;;;4.78;2.40;;;4.90;99.90;;;;;;5049881;28;20024;-74
2023/01/02 03:00:18;;;;;;;3.13;1.67;;;5.40;99.90;;;;;;5047062;28;20028;-74
2023/01/02 03:02:44;;;;;;;2.05;1.67;;;;;;;;;;5047686;28;20326;-74
2023/01/02 03:05:15;;;;;;;3.33;1.92;;;5.20;99.90;;;;;;5047392;28;20439;-76
2023/01/02 03:07:41;;;;;;;8.20;2.25;;;;;;;;;;5047200;28;20021;-75
2023/01/02 03:10:17;;;;;;;3.92;1.77;;;4.80;99.90;;;;;;5049250;28;20029;-75
2023/01/02 03:13:15;;;;;;;4.68;2.25;;;4.90;99.90;;;;;;5047214;28;20033;-75
2023/01/02 03:16:21;;;;;;;3.83;1.92;;;5.10;99.90;;;;;;5018434;28;20037;-77
2023/01/02 03:19:11;;;;;;;4.53;1.85;;;5.00;99.90;;;;;;4967552;28;20109;-76
2023/01/02 03:21:46;;;;;;;7.20;1.70;;;5.10;99.90;;;;;;5045951;28;20500;-76
2023/01/02 03:24:17;;;;;;;1.63;1.33;;;4.90;99.90;;;;;;5049782;28;20096;-76
2023/01/02 03:26:46;;;;;;;3.20;2.08;;;5.00;99.90;;;;;;5051398;28;20017;-73
2023/01/02 03:29:18;;;;;;;5.95;2.45;;;5.60;99.90;;;;;;5050332;28;20262;-73
2023/01/02 03:31:49;;;;;;;5.68;2.15;;;5.50;99.90;;;;;;5050848;28;20056;-74
2023/01/02 03:34:20;;;;;;;4.22;2.50;;;;;;;;;;5050083;28;20132;-73
2023/01/02 03:36:52;;;;;;;4.13;2.17;;;5.40;99.90;;;;;;5049538;28;20025;-73
2023/01/02 03:39:22;;;;;;;4.05;2.08;;;5.80;99.90;;;;;;5050080;28;20021;-73
2023/01/02 03:42:03;;;;;;;4.32;2.22;;;5.70;99.90;;;;;;5051805;28;20035;-74
2023/01/02 03:44:49;;;;;;;5.95;1.75;;;5.20;99.90;;;;;;5051052;28;20116;-73
2023/01/02 03:47:30;;;;;;;3.63;1.83;;;;;;;;;;5058592;28;20120;-73
2023/01/02 03:49:59;;;;;;;2.65;2.10;;;5.20;99.90;;;;;;5070727;28;20520;-73
2023/01/02 03:52:25;;;;;;;3.67;2.17;;;6.00;99.90;;;;;;5070584;28;20029;-73
2023/01/02 03:54:52;;;;;;;5.88;2.10;;;5.10;99.90;;;;;;5071034;28;20025;-73
2023/01/02 03:57:47;;;;;;;3.22;1.88;;;5.80;99.90;;;;;;5071498;28;20028;-73
2023/01/02 04:00:15;;;;;;;14.10;2.00;;;;;;;;;;5070687;28;20017;-73
2023/01/02 04:03:02;;;;;;;4.05;1.40;;;5.30;99.90;;;;;;5070840;28;20028;-72
2023/01/02 04:05:31;;;;;;;4.32;3.00;;;5.60;99.90;;;;;;5071211;28;20375;-73
2023/01/02 04:08:21;;;;;;;5.50;2.28;;;5.20;99.90;;;;;;5070583;28;20514;-73
2023/01/02 04:10:50;;;;;;;2.28;1.40;;;5.30;99.90;;;;;;5070941;28;20342;-73
2023/01/02 04:13:20;;;;;;;4.87;1.83;;;5.70;99.90;;;;;;5072819;28;20540;-73
2023/01/02 04:15:48;;;;;;;5.80;3.15;;;5.70;99.90;;;;;;5071146;28;20032;-73
2023/01/02 04:18:29;;;;;;;6.68;1.70;;;5.60;99.90;;;;;;5070912;28;20021;-72
2023/01/02 04:21:00;;;;;;;2.60;2.10;;;5.60;99.90;;;;;;5070976;28;20048;-72
2023/01/02 04:23:34;;;;;;;7.60;2.00;;;5.60;99.90;;;;;;5070877;28;20060;-73
2023/01/02 04:26:14;;;;;;;1.42;1.33;;;5.20;99.90;;;;;;5072281;28;20023;-73
2023/01/02 04:28:40;;;;;;;2.90;1.40;;;5.90;99.90;;;;;;5072148;28;20290;-72
2023/01/02 04:31:12;;;;;;;3.72;1.67;;;5.70;99.90;;;;;;5071970;28;20259;-72
2023/01/02 04:33:51;;;;;;;6.57;1.38;;;5.30;99.90;;;;;;5072178;28;20032;-73
2023/01/02 04:36:17;;;;;;;2.03;1.92;;;5.20;99.90;;;;;;5070828;28;20112;-74
2023/01/02 04:38:44;;;;;;;1.55;1.33;;;5.00;99.90;;;;;;5071262;28;20064;-73
2023/01/02 04:41:15;;;;;;;5.10;2.08;;;5.50;99.90;;;;;;5069089;28;20462;-73
2023/01/02 04:43:41;;;;;;;9.77;2.65;;;5.00;99.90;;;;;;5072078;28;20050;-73
2023/01/02 04:46:07;;;;;;;4.68;1.50;;;;;;;;;;5070922;28;20103;-73
2023/01/02 04:48:32;;;;;;;1.23;1.13;;;5.00;99.90;;;;;;5070424;28;20434;-72
2023/01/02 04:50:58;;;;;;;1.60;1.20;;;6.40;99.90;;;;;;5071165;28;20314;-73
2023/01/02 04:53:24;;;;;;;2.92;1.60;;;4.80;99.90;;;;;;5071902;28;20028;-73
2023/01/02 04:55:55;;;;;;;4.03;1.42;;;6.00;99.90;;;;;;5069574;28;20461;-73
2023/01/02 04:58:21;;;;;;;3.67;1.85;;;4.60;99.90;;;;;;5071437;28;20024;-73
2023/01/02 05:00:47;;;;;;;12.52;2.83;;;5.10;99.90;;;;;;5070031;28;20024;-73
2023/01/02 05:03:13;;;;;;;4.00;1.63;;;;;;;;;;5070064;28;20287;-72
2023/01/02 05:05:38;;;;;;;6.97;1.40;;;4.80;99.90;;;;;;5073546;28;20021;-73
2023/01/02 05:08:04;;;;;;;20.55;2.65;;;5.10;99.90;;;;;;5075642;28;20025;-73
2023/01/02 05:10:30;;;;;;;7.78;1.77;;;5.20;99.90;;;;;;5075491;28;20278;-73
2023/01/02 05:12:58;;;;;;;2.63;1.98;;;4.90;99.90;;;;;;5074908;28;20132;-77
2023/01/02 05:15:24;;;;;;;3.10;2.20;;;4.70;99.90;;;;;;5074015;28;20032;-73
2023/01/02 05:17:50;;;;;;;4.78;1.30;;;5.50;99.90;;;;;;5073234;28;20078;-73
2023/01/02 05:20:15;;;;;;;5.40;2.42;;;5.20;99.90;;;;;;5074360;28;20499;-73
2023/01/02 05:25:27;;;;;;;6.93;1.25;;;5.40;99.90;;;;;;5073841;28;20591;-74
2023/01/02 05:27:54;;;;;;;2.35;1.83;;;4.60;99.90;;;;;;5072423;28;20499;-74
2023/01/02 05:30:20;;;;;;;10.75;2.40;;;;;;;;;;5073623;28;20029;-73
2023/01/02 05:32:46;;;;;;;1.27;1.17;;;4.40;99.90;;;;;;5072269;28;20031;-73
2023/01/02 05:35:12;;;;;;;1.88;1.73;;;5.30;99.90;;;;;;5073316;28;20033;-73
2023/01/02 05:37:38;;;;;;;5.10;1.77;;;4.40;99.90;;;;;;5073358;28;20107;-73
2023/01/02 05:40:04;;;;;;;5.28;1.52;;;4.40;99.90;;;;;;5073302;28;20028;-73
2023/01/02 05:42:30;;;;;;;2.00;1.25;;;;;;;;;;5073327;28;20530;-73
2023/01/02 05:44:56;;;;;;;8.95;2.05;;;4.30;99.90;;;;;;5077952;28;20461;-73
2023/01/02 05:47:22;;;;;;;3.20;2.17;;;;;;;;;;5063268;28;20032;-73
2023/01/02 05:49:47;;;;;;;2.17;1.92;;;4.40;99.90;;;;;;5060441;28;20036;-73
2023/01/02 05:52:13;;;;;;;4.32;1.75;;;5.20;99.90;;;;;;5062360;28;20031;-73
2023/01/02 05:54:39;;;;;;;14.70;2.38;;;4.40;99.90;;;;;;5057778;28;20474;-73
2023/01/02 05:57:05;;;;;;;2.45;1.67;;;4.30;99.90;;;;;;5058466;28;20412;-73
2023/01/02 05:59:31;;;;;;;3.58;2.25;;;4.70;99.90;;;;;;5064501;28;20063;-73
2023/01/02 06:01:56;;;;;;;2.38;1.52;;;4.20;99.90;;;;;;5060456;28;20086;-73
2023/01/02 06:04:22;;;;;;;2.03;1.30;;;4.00;99.90;;;;;;5060486;28;20044;-73
2023/01/02 06:06:48;;;;;;;2.80;1.95;;;3.90;99.90;;;;;;5059920;28;20055;-74
2023/01/02 06:09:15;;;;;;;3.08;2.00;;;5.20;99.90;;;;;;5063163;28;20036;-75
2023/01/02 06:11:40;;;;;;;8.30;2.97;;;4.20;99.90;;;;;;5065240;28;20104;-76
2023/01/02 06:14:07;;;;;;;1.88;1.77;;;4.30;99.90;;;;;;5057769;28;20096;-73
2023/01/02 06:16:33;;;;;;;6.70;2.35;;;4.20;99.90;;;;;;5056388;28;20024;-73
2023/01/02 06:18:59;;;;;;;4.60;2.25;;;5.00;99.90;;;;;;5061867;28;20021;-74
2023/01/02 06:21:24;;;;;;;2.17;1.63;;;5.40;99.90;;;;;;5066143;28;20036;-73
2023/01/02 06:23:55;;;;;;;5.45;2.47;;;4.30;99.90;;;;;;5059338;28;20056;-73
2023/01/02 06:26:21;;;;;;;2.03;0.85;;;;;;;;;;5058708;28;20081;-73
2023/01/02 06:28:53;;;;;;;6.97;1.92;;;4.30;99.90;;;;;;5062517;28;20032;-75
2023/01/02 06:31:22;;;;;;;2.92;1.80;;;4.90;99.90;;;;;;5060125;28;20062;-73
2023/01/02 06:33:56;;;;;;;2.07;1.60;;;4.40;99.90;;;;;;5067828;28;20043;-73
2023/01/02 06:36:22;;;;;;;4.85;1.60;;;4.60;99.90;;;;;;5067741;28;20259;-74
2023/01/02 06:38:47;;;;;;;2.15;1.83;;;5.20;99.90;;;;;;5071968;28;20115;-75
2023/01/02 06:41:15;;;;;;;2.35;1.40;;;;;;;;;;5070844;28;20044;-78
2023/01/02 06:43:42;;;;;;;2.15;1.88;;;4.60;99.90;;;;;;5071985;28;20507;-76
2023/01/02 06:46:10;;;;;;;1.88;1.50;;;4.50;99.90;;;;;;5073028;28;20377;-76
2023/01/02 06:48:35;;;;;;;1.45;1.20;;;4.50;99.90;;;;;;5072062;28;20028;-76
2023/01/02 06:51:06;;;;;;;3.60;1.67;;;4.30;99.90;;;;;;5072275;28;20362;-76
2023/01/02 06:53:34;;;;;;;1.63;0.82;;;4.40;99.90;;;;;;5070773;28;20048;-74
2023/01/02 06:56:00;;;;;;;1.65;1.13;;;5.70;99.90;;;;;;5071825;28;20361;-74
2023/01/02 06:58:29;;;;;;;4.40;1.30;;;5.10;99.90;;;;;;5071683;28;20093;-74
2023/01/02 07:00:54;;;;;;;4.80;1.23;;;5.60;99.90;;;;;;5072191;28;20020;-74
2023/01/02 07:03:20;;;;;;;1.77;0.88;;;4.30;99.90;;;;;;5071693;28;20488;-74
2023/01/02 07:05:46;;;;;;;1.80;1.63;;;;;;;;;;5072448;28;20032;-74
2023/01/02 07:08:12;;;;;;;2.38;1.55;;;4.00;99.90;;;;;;5073297;28;20032;-74
2023/01/02 07:10:38;;;;;;;1.67;1.38;;;4.10;99.90;;;;;;5073087;28;20023;-74
2023/01/02 07:13:04;;;;;;;2.85;1.40;;;5.30;99.90;;;;;;5073949;28;20024;-77
2023/01/02 07:15:31;;;;;;;1.08;0.95;;;4.10;99.90;;;;;;5072843;28;20122;-78
2023/01/02 07:17:57;;;;;;;6.07;1.48;;;;;;;;;;5072997;28;20174;-77
2023/01/02 07:20:23;;;;;;;1.67;0.93;;;;;;;;;;5073626;28;20583;-78
2023/01/02 07:22:50;;;;;;;11.10;2.03;;;4.40;99.90;;;;;;5071396;28;20056;-77
2023/01/02 07:25:16;;;;;;;4.68;1.20;;;4.40;99.90;;;;;;5073931;28;20069;-77
2023/01/02 07:27:42;;;;;;;2.28;1.50;;;4.40;99.90;;;;;;5070783;28;20377;-77
2023/01/02 07:30:08;;;;;;;2.65;2.20;;;4.50;99.90;;;;;;5071359;28;20031;-78
2023/01/02 07:32:34;;;;;;;3.65;1.55;;;4.50;99.90;;;;;;5071298;28;20028;-77
2023/01/02 07:35:00;;;;;;;1.67;1.58;;;5.90;99.90;;;;;;5069736;28;20023;-75
2023/01/02 07:37:25;;;;;;;2.33;1.20;;;4.20;99.90;;;;;;5071323;28;20035;-75
2023/01/02 07:39:51;;;;;;;2.83;1.42;;;5.10;99.90;;;;;;5072825;28;20204;-74
2023/01/02 07:42:16;;;;;;;2.03;1.83;;;4.20;99.90;;;;;;5071179;28;20025;-75
2023/01/02 07:44:42;;;;;;;2.70;1.25;;;5.80;99.90;;;;;;5070712;28;20025;-76
2023/01/02 07:47:08;;;;;;;3.95;1.38;;;4.30;99.90;;;;;;5072107;28;20055;-74
2023/01/02 07:49:33;;;;;;;3.45;1.45;;;4.30;99.90;;;;;;5071048;28;20031;-74
2023/01/02 07:51:59;;;;;;;1.70;1.30;;;4.40;99.90;;;;;;5070989;28;20020;-75
2023/01/02 07:54:25;;;;;;;1.92;1.45;;;4.30;99.90;;;;;;5071239;28;20089;-75
2023/01/02 07:56:51;;;;;;;5.68;1.30;;;4.20;99.90;;;;;;5072486;28;20074;-74
2023/01/02 07:59:17;;;;;;;4.13;1.20;;;4.40;99.90;;;;;;5073064;28;20514;-74
2023/01/02 08:01:43;;;;;;;2.38;1.70;;;4.40;99.90;;;;;;5072889;28;20158;-76
2023/01/02 08:04:08;;;;;;;4.07;1.33;;;3.60;99.90;;;;;;5072775;28;20039;-77
2023/01/02 08:06:34;;;;;;;3.15;1.40;;;5.70;99.90;;;;;;5073556;28;20023;-75
2023/01/02 08:09:00;;;;;;;3.85;2.28;;;4.60;99.90;;;;;;5072833;28;20028;-74
2023/01/02 08:11:26;;;;;;;2.40;1.50;;;;;;;;;;5077051;28;20020;-76
2023/01/02 08:13:51;;;;;;;2.15;1.33;;;4.70;99.90;;;;;;5074718;28;20025;-75
2023/01/02 08:16:19;;;;;;;1.33;1.20;;;4.70;99.90;;;;;;5070735;28;20280;-76
2023/01/02 08:18:50;;;;;;;2.25;1.38;;;4.80;99.90;;;;;;5074790;28;20090;-75
2023/01/02 08:21:16;;;;;;;2.45;1.50;;;;;;;;;;5076763;28;20013;-75
2023/01/02 08:23:41;;;;;;;3.60;1.83;;;3.80;99.90;;;;;;5079224;28;20056;-75
2023/01/02 08:26:09;;;;;;;1.67;1.50;;;5.10;99.90;;;;;;5070877;28;20438;-75
2023/01/02 08:28:36;;;;;;;1.67;1.50;;;;;;;;;;5076991;28;20099;-76
2023/01/02 08:31:10;;;;;;;3.08;1.73;;;5.40;99.90;;;;;;5071064;28;20032;-77
2023/01/02 08:33:36;;;;;;;4.88;3.50;;;5.90;99.90;;;;;;5073678;28;20021;-77
2023/01/02 08:36:01;;;;;;;7.55;1.30;;;5.60;99.90;;;;;;5076047;28;20349;-74
2023/01/02 08:38:27;;;;;;;2.22;1.30;;;;;;;;;;5072350;28;20040;-75
2023/01/02 08:40:53;;;;;;;2.65;1.83;;;5.70;99.90;;;;;;5082890;28;20020;-75
2023/01/02 08:43:19;;;;;;;2.25;1.50;;;5.90;99.90;;;;;;5076243;28;20036;-75
2023/01/02 08:45:44;;;;;;;2.30;1.63;;;6.00;99.90;;;;;;5079551;28;20032;-75
2023/01/02 08:48:10;;;;;;;1.90;1.63;;;6.10;99.90;;;;;;5079540;28;20028;-76
2023/01/02 08:50:36;;;;;;;2.28;2.03;;;;;;;;;;5061680;28;20091;-75
2023/01/02 08:53:01;;;;;;;4.85;1.48;;;6.10;99.90;;;;;;5055699;28;20028;-74
2023/01/02 08:55:27;;;;;;;1.38;1.27;;;6.30;99.90;;;;;;5056342;28;20031;-74
2023/01/02 08:57:53;;;;;;;3.55;1.83;;;6.30;99.90;;;;;;5059203;28;20206;-74
2023/01/02 09:00:18;;;;;;;1.40;1.25;;;6.40;99.90;;;;;;5059186;28;20017;-75
2023/01/02 09:02:44;;;;;;;1.20;1.08;;;6.40;99.90;;;;;;5053618;28;20029;-76
2023/01/02 09:05:10;;;;;;;1.50;1.20;;;6.70;99.90;;;;;;5066355;28;20405;-76
2023/01/02 09:07:35;;;;;;;1.95;1.35;;;6.60;99.90;;;;;;5072043;28;20032;-77
2023/01/02 09:10:01;;;;;;;3.60;2.15;;;6.60;99.90;;;;;;5060097;28;20627;-77
2023/01/02 09:12:27;;;;;;;2.17;1.13;;;6.60;99.90;;;;;;5051606;28;20025;-76
2023/01/02 09:14:52;;;;;;;1.45;1.25;;;6.70;99.90;;;;;;5050650;28;20029;-76
2023/01/02 09:17:18;;;;;;;3.30;2.03;;;6.70;99.90;;;;;;5053228;28;20013;-74
2023/01/02 09:19:44;;;;;;;5.65;1.67;;;;;;;;;;5072340;28;20029;-75
2023/01/02 09:22:10;;;;;;;1.63;1.10;;;6.70;99.90;;;;;;5070752;28;20094;-75
2023/01/02 09:24:35;;;;;;;4.13;1.55;;;6.90;99.90;;;;;;5069977;28;20486;-74
2023/01/02 09:27:01;;;;;;;1.65;1.42;;;7.20;99.90;;;;;;5069524;28;20040;-75
2023/01/02 09:29:27;;;;;;;2.40;1.48;;;;;;;;;;5068796;28;20040;-75
2023/01/02 09:31:53;;;;;;;2.45;1.00;;;7.30;99.90;;;;;;5069038;28;20049;-74
2023/01/02 09:34:18;;;;;;;1.15;1.02;;;7.50;99.90;;;;;;5069739;28;20507;-76
2023/01/02 09:36:46;;;;;;;1.08;0.98;;;7.70;99.90;;;;;;5069145;28;20050;-73
2023/01/02 09:39:12;;;;;;;1.10;1.00;;;6.90;99.90;;;;;;5080036;28;20158;-75
2023/01/02 09:41:40;;;;;;;25.83;10.05;;;7.90;99.90;;;;;;5080832;28;20288;-74
2023/01/02 09:44:28;;;;;;;13.53;6.30;;;7.80;99.90;;;;;;5080983;28;20036;-75
2023/01/02 09:47:09;;;;;;;1.33;1.13;;;7.90;99.90;;;;;;5067428;28;20017;-74
2023/01/02 09:49:46;;;;;;;4.90;2.15;;;;;;;;;;5065419;28;20415;-75
2023/01/02 09:52:35;;;;;;;11.68;3.60;;;8.00;99.90;;;;;;5073470;28;20020;-74
2023/01/02 09:55:01;;;;;;;9.13;4.05;;;;;;;;;;5077749;28;20016;-75
2023/01/02 09:57:27;;;;;;;5.10;2.83;;;;;;;;;;5078496;28;20020;-74
2023/01/02 09:59:57;;;;;;;4.50;1.45;;;;;;;;;;5060213;28;20347;-74
2023/01/02 10:02:48;;;;;;;4.13;2.78;;;8.30;99.90;;;;;;5059378;28;20028;-74
2023/01/02 10:05:32;;;;;;;11.93;5.63;;;;;;;;;;5059680;28;20391;-75
2023/01/02 10:08:11;;;;;;;9.30;5.07;;;8.60;99.90;;;;;;5079595;28;20040;-74
2023/01/02 10:10:53;;;;;;;23.75;9.85;;;11.00;99.90;;;;;;5079183;28;20219;-75
2023/01/02 10:13:32;;;;;;;18.08;8.40;;;9.00;99.90;;;;;;5079819;28;20188;-74
2023/01/02 10:16:02;;;;;;;21.13;8.07;;;9.20;99.90;;;;;;5079177;28;20033;-74
2023/01/02 10:18:30;;;;;;;;;;;9.20;99.90;;;;;;5079412;28;20037;-74
2023/01/02 10:21:02;;;;;;;17.00;6.17;;;9.20;99.90;;;;;;5079956;28;19909;-73
2023/01/02 10:23:43;;;;;;;15.57;7.80;;;9.70;99.90;;;;;;5079242;28;20307;-76
2023/01/02 10:26:17;;;;;;;29.92;12.27;;;9.80;99.90;;;;;;5079757;28;20029;-74
2023/01/02 10:28:49;;;;;;;36.15;15.52;;;9.90;99.90;;;;;;5078252;28;20025;-74
2023/01/02 10:31:38;;;;;;;23.45;9.35;;;10.00;99.90;;;;;;5078571;28;20027;-73
2023/01/02 10:34:11;;;;;;;23.13;10.95;;;;;;;;;;5076358;28;20224;-74
2023/01/02 10:36:41;;;;;;;22.30;9.35;;;10.10;99.90;;;;;;5059507;28;20032;-74
2023/01/02 10:39:09;;;;;;;20.55;8.93;;;;;;;;;;5080141;28;20099;-73
2023/01/02 10:41:35;;;;;;;20.83;8.20;;;10.10;99.90;;;;;;5078291;28;20343;-74
2023/01/02 10:44:25;;;;;;;24.38;10.70;;;9.90;99.90;;;;;;5078947;28;20036;-74
2023/01/02 10:46:51;;;;;;;20.95;10.80;;;;;;;;;;5057190;28;20037;-74
2023/01/02 10:49:19;;;;;;;20.25;7.38;;;10.70;99.90;;;;;;5065974;28;20024;-77
2023/01/02 10:51:52;;;;;;;10.45;5.03;;;10.00;99.90;;;;;;5070314;28;20017;-73
2023/01/02 10:54:18;;;;;;;10.85;6.05;;;10.10;99.90;;;;;;5070494;28;20051;-73
2023/01/02 10:56:49;;;;;;;23.15;7.45;;;10.10;99.90;;;;;;5069146;28;20024;-73
2023/01/02 10:59:20;;;;;;;10.68;5.22;;;;;;;;;;5067488;28;20020;-73
2023/01/02 11:01:59;;;;;;;14.63;6.03;;;10.30;99.90;;;;;;5068296;28;20035;-73
2023/01/02 11:04:26;;;;;;;5.00;3.17;;;;;;;;;;5069165;28;20139;-74
2023/01/02 11:06:55;;;;;;;6.75;3.13;;;10.40;99.90;;;;;;5067137;28;20128;-73
2023/01/02 11:09:28;;;;;;;3.55;2.17;;;10.70;99.90;;;;;;5067888;28;20619;-74
2023/01/02 11:11:56;;;;;;;7.95;2.67;;;10.80;99.90;;;;;;5067783;28;20062;-73
2023/01/02 11:14:32;;;;;;;3.97;2.13;;;11.00;99.90;;;;;;5067468;28;20378;-73
2023/01/02 11:17:22;;;;;;;9.02;2.15;;;11.20;99.90;;;;;;5066620;28;20095;-73
2023/01/02 11:19:54;;;;;;;1.92;1.45;;;11.50;99.90;;;;;;5067495;28;20032;-72
2023/01/02 11:22:31;;;;;;;2.30;2.10;;;11.70;99.90;;;;;;5067053;28;20518;-75
2023/01/02 11:25:00;;;;;;;4.97;2.15;;;11.80;99.90;;;;;;5067945;28;20044;-73
2023/01/02 11:27:33;;;;;;;4.03;1.48;;;;;;;;;;5067316;28;20024;-74
2023/01/02 11:29:59;;;;;;;6.65;1.83;;;12.20;99.90;;;;;;5067823;28;20032;-74
2023/01/02 11:32:34;;;;;;;2.70;1.85;;;12.30;99.90;;;;;;5065235;28;20012;-73
2023/01/02 11:35:01;;;;;;;5.28;3.15;;;12.40;99.90;;;;;;5067754;28;20025;-73
2023/01/02 11:37:28;;;;;;;3.42;2.47;;;12.70;99.90;;;;;;5066811;28;20024;-73
2023/01/02 11:40:01;;;;;;;3.03;1.25;;;;;;;;;;5066771;28;20021;-73
2023/01/02 11:45:26;;;;;;;;;;;13.20;99.90;;;;;;5071997;28;20044;-73
2023/01/02 11:47:59;;;;;;;3.03;1.10;;;13.30;99.90;;;;;;5075781;28;20108;-73
2023/01/02 11:50:30;;;;;;;1.75;1.42;;;13.40;99.90;;;;;;5072709;28;20032;-73
2023/01/02 11:53:11;;;;;;;5.53;1.40;;;13.50;99.90;;;;;;5067468;28;20495;-74
2023/01/02 11:55:43;;;;;;;3.05;1.20;;;13.80;99.10;;;;;;5070942;28;20055;-73
2023/01/02 11:58:27;;;;;;;8.85;2.40;;;13.90;96.90;;;;;;5067118;28;20020;-73
2023/01/02 12:01:21;;;;;;;2.25;1.55;;;14.10;96.60;;;;;;5067072;28;20032;-74
2023/01/02 12:03:47;;;;;;;11.25;2.35;;;14.30;97.70;;;;;;5068832;28;20039;-74
2023/01/02 12:06:18;;;;;;;3.38;1.95;;;14.40;99.90;;;;;;5067558;28;20021;-74
2023/01/02 12:08:49;;;;;;;4.03;1.95;;;14.50;99.90;;;;;;5066458;28;20036;-73
2023/01/02 12:11:51;;;;;;;2.40;1.73;;;14.60;97.10;;;;;;5066899;28;20472;-74
2023/01/02 12:14:34;;;;;;;3.70;1.70;;;14.50;99.90;;;;;;5040672;28;20285;-73
2023/01/02 12:17:17;;;;;;;3.33;1.80;;;14.50;97.20;;;;;;5065329;28;20020;-74
2023/01/02 12:19:49;;;;;;;1.83;1.23;;;;;;;;;;5065096;28;20048;-74
2023/01/02 12:22:21;;;;;;;2.33;1.67;;;14.40;97.20;;;;;;5066741;28;20045;-74
2023/01/02 12:25:08;;;;;;;1.55;1.45;;;14.40;99.90;;;;;;5064708;28;20515;-74
2023/01/02 12:27:46;;;;;;;3.05;2.28;;;14.10;99.90;;;;;;5065387;28;20559;-75
2023/01/02 12:30:14;;;;;;;4.63;2.15;;;14.00;99.90;;;;;;5064937;28;20077;-74
2023/01/02 12:33:06;;;;;;;5.95;2.78;;;14.30;99.90;;;;;;5066504;28;20125;-74
2023/01/02 12:35:50;;;;;;;6.30;2.75;;;14.20;98.40;;;;;;5066158;28;20036;-75
2023/01/02 12:38:42;;;;;;;4.07;2.35;;;14.30;98.10;;;;;;5063870;28;20059;-74
2023/01/02 12:41:29;;;;;;;6.13;2.30;;;14.40;99.90;;;;;;5034781;28;20029;-73
2023/01/02 12:44:01;;;;;;;10.88;2.38;;;14.40;97.80;;;;;;5065861;28;20032;-76
2023/01/02 12:46:42;;;;;;;9.93;2.38;;;14.20;99.90;;;;;;5066205;28;20100;-77
2023/01/02 12:49:08;;;;;;;4.65;2.00;;;;;;;;;;5066974;28;20024;-76
2023/01/02 12:52:11;;;;;;;4.93;2.03;;;14.00;96.60;;;;;;5066871;28;20030;-76
2023/01/02 12:55:03;;;;;;;4.97;2.50;;;13.80;96.30;;;;;;5066213;28;20055;-76
2023/01/02 12:57:43;;;;;;;4.82;3.08;;;13.60;99.90;;;;;;5065679;28;20029;-76
2023/01/02 13:00:16;;;;;;;7.88;3.22;;;;;;;;;;5046215;28;20039;-74
2023/01/02 13:03:00;;;;;;;6.30;2.50;;;13.50;99.90;;;;;;5056070;28;20029;-73
2023/01/02 13:05:42;;;;;;;6.05;2.47;;;13.20;99.90;;;;;;5074389;28;20030;-73
2023/01/02 13:08:26;;;;;;;10.57;3.30;;;13.20;99.90;;;;;;5047473;28;20025;-73
2023/01/02 13:10:53;;;;;;;3.92;2.30;;;13.00;99.90;;;;;;5074678;28;20034;-74
2023/01/02 13:13:31;;;;;;;2.70;1.75;;;;;;;;;;5071821;28;20025;-73
2023/01/02 13:16:03;;;;;;;9.68;2.17;;;13.50;99.90;;;;;;5075456;28;20336;-73
2023/01/02 13:19:00;;;;;;;6.82;1.40;;;14.20;93.20;;;;;;5075995;28;20325;-77
2023/01/02 13:21:48;;;;;;;4.55;1.33;;;14.40;93.70;;;;;;5074098;28;20228;-77
2023/01/02 13:24:21;;;;;;;10.57;1.10;;;14.60;93.70;;;;;;5074885;28;20052;-76
2023/01/02 13:26:47;;;;;;;6.25;1.35;;;;;;;;;;5067319;28;20025;-74
2023/01/02 13:29:13;;;;;;;1.45;0.90;;;;;;;;;;5079634;28;20062;-76
2023/01/02 13:31:41;;;;;;;7.47;1.35;;;14.60;92.60;;;;;;5075604;28;20021;-73
2023/01/02 13:34:28;;;;;;;4.53;1.63;;;14.90;99.10;;;;;;5066147;28;20021;-74